Main page
METAR-TAF:

METAR-TAF

Airports :

Kulob Airport

Kulob, Tajikistan

latitude: 37-59-18N, longitude: 069-48-18E, elevation: 699 m

Current weather observation

The report was made 16 minutes ago, at 03:00 UTC
Wind 2 kt from variable directions
Temperature 19°C
Humidity 64%
Pressure 1014 hPa
Visibility 10 km or more

METAR: UTDK 190300Z VRB01MPS 9999 NSC 19/12 Q1014 R01/09//70 RMK QFE703/0938

Time: 08:16 (03:16 UTC)

Forecast

The report was made 3 hours and 16 minutes ago, at 00:00 UTC
Forecast valid from 19 at 01 UTC to 19 at 10 UTC
Wind 4 kt from variable directions
Visibility: 6000 m
Scattered clouds at a height of 6000 ft, Cumulonimbus.
Broken clouds at a height of 10000 ft
Temporary
from 19 at 01 UTC to 19 at 06 UTC
Wind 10 kt from the North/Northeast
Probability 40% :
Temporary
from 19 at 06 UTC to 19 at 10 UTC
Wind 16 kt from variable directions
thunderstorm

TAF: UTDK 190000Z 1901/1910 VRB02MPS 6000 SCT060CB BKN100 TEMPO 1901/1906 03005MPS PROB40 TEMPO 1906/1910 VRB08MPS TS

Weather observations and forecasts of more than 4000 airports (METAR and TAF reports).

The available stations are represented by yellow and red dots on the map.

Hover mouse over dot to see the name of the station.

Then click to see weather observations and forecasts.

To change the map : click on the green buttons with a black cross to zoom in, on the green button with a dash to zoom out, or on the green arrows for adjacent maps.


METAR-TAF: